sensor_id;sensor_type;location;lat;lon;timestamp;temperature;humidity
12309;DHT22;6217;48.150;17.142;2022-11-15T00:04:05;7.20;99.90
12309;DHT22;6217;48.150;17.142;2022-11-15T00:08:30;7.30;99.90
12309;DHT22;6217;48.150;17.142;2022-11-15T00:12:55;7.10;99.90
12309;DHT22;6217;48.150;17.142;2022-11-15T00:17:20;7.20;99.90
12309;DHT22;6217;48.150;17.142;2022-11-15T00:21:44;7.00;99.90
12309;DHT22;6217;48.150;17.142;2022-11-15T00:26:12;7.00;99.90
12309;DHT22;6217;48.150;17.142;2022-11-15T00:30:37;7.10;99.90
12309;DHT22;6217;48.150;17.142;2022-11-15T00:35:01;7.00;99.90
12309;DHT22;6217;48.150;17.142;2022-11-15T00:39:26;7.00;99.90
12309;DHT22;6217;48.150;17.142;2022-11-15T00:43:50;7.10;99.90
12309;DHT22;6217;48.150;17.142;2022-11-15T00:48:14;7.10;99.90
12309;DHT22;6217;48.150;17.142;2022-11-15T00:52:39;7.10;99.90
12309;DHT22;6217;48.150;17.142;2022-11-15T00:57:03;7.20;99.90
12309;DHT22;6217;48.150;17.142;2022-11-15T01:01:28;7.10;99.90
12309;DHT22;6217;48.150;17.142;2022-11-15T01:05:53;7.20;99.90
12309;DHT22;6217;48.150;17.142;2022-11-15T01:10:17;7.30;99.90
12309;DHT22;6217;48.150;17.142;2022-11-15T01:14:41;7.30;99.90
12309;DHT22;6217;48.150;17.142;2022-11-15T01:19:06;7.30;99.90
12309;DHT22;6217;48.150;17.142;2022-11-15T01:23:30;7.30;99.90
12309;DHT22;6217;48.150;17.142;2022-11-15T01:27:55;7.30;99.90
12309;DHT22;6217;48.150;17.142;2022-11-15T01:32:19;7.20;99.90
12309;DHT22;6217;48.150;17.142;2022-11-15T01:36:43;7.20;99.90
12309;DHT22;6217;48.150;17.142;2022-11-15T01:41:19;7.10;99.90
12309;DHT22;6217;48.150;17.142;2022-11-15T01:45:46;7.10;99.90
12309;DHT22;6217;48.150;17.142;2022-11-15T01:50:17;7.10;99.90
12309;DHT22;6217;48.150;17.142;2022-11-15T01:54:43;7.10;99.90
12309;DHT22;6217;48.150;17.142;2022-11-15T01:59:08;7.10;99.90
12309;DHT22;6217;48.150;17.142;2022-11-15T02:03:41;7.10;99.90
12309;DHT22;6217;48.150;17.142;2022-11-15T02:08:06;7.20;99.90
12309;DHT22;6217;48.150;17.142;2022-11-15T02:12:32;7.10;99.90
12309;DHT22;6217;48.150;17.142;2022-11-15T02:21:47;7.30;99.90
12309;DHT22;6217;48.150;17.142;2022-11-15T02:26:43;7.40;99.90
12309;DHT22;6217;48.150;17.142;2022-11-15T02:31:32;7.40;99.90
12309;DHT22;6217;48.150;17.142;2022-11-15T02:36:35;7.50;99.90
12309;DHT22;6217;48.150;17.142;2022-11-15T02:41:14;7.50;99.90
12309;DHT22;6217;48.150;17.142;2022-11-15T02:45:48;7.60;99.90
12309;DHT22;6217;48.150;17.142;2022-11-15T02:50:21;7.60;99.90
12309;DHT22;6217;48.150;17.142;2022-11-15T02:54:56;7.50;99.90
12309;DHT22;6217;48.150;17.142;2022-11-15T02:59:26;7.50;99.90
12309;DHT22;6217;48.150;17.142;2022-11-15T03:08:57;7.60;99.90
12309;DHT22;6217;48.150;17.142;2022-11-15T03:13:25;7.60;99.90
12309;DHT22;6217;48.150;17.142;2022-11-15T03:17:55;7.80;99.90
12309;DHT22;6217;48.150;17.142;2022-11-15T03:22:26;7.90;99.90
12309;DHT22;6217;48.150;17.142;2022-11-15T03:26:53;7.90;99.90
12309;DHT22;6217;48.150;17.142;2022-11-15T03:31:21;7.90;99.90
12309;DHT22;6217;48.150;17.142;2022-11-15T03:36:06;8.00;99.90
12309;DHT22;6217;48.150;17.142;2022-11-15T03:40:41;8.00;99.90
12309;DHT22;6217;48.150;17.142;2022-11-15T03:45:14;8.00;99.90
12309;DHT22;6217;48.150;17.142;2022-11-15T03:49:44;8.00;99.90
12309;DHT22;6217;48.150;17.142;2022-11-15T03:54:12;8.00;99.90
12309;DHT22;6217;48.150;17.142;2022-11-15T03:58:36;8.00;99.90
12309;DHT22;6217;48.150;17.142;2022-11-15T04:03:00;8.00;99.90
12309;DHT22;6217;48.150;17.142;2022-11-15T04:07:24;8.00;99.90
12309;DHT22;6217;48.150;17.142;2022-11-15T04:11:49;8.10;99.90
12309;DHT22;6217;48.150;17.142;2022-11-15T04:16:13;8.10;99.90
12309;DHT22;6217;48.150;17.142;2022-11-15T04:20:38;8.10;99.90
12309;DHT22;6217;48.150;17.142;2022-11-15T04:25:21;8.20;99.90
12309;DHT22;6217;48.150;17.142;2022-11-15T04:29:45;8.20;99.90
12309;DHT22;6217;48.150;17.142;2022-11-15T04:34:10;8.30;99.90
12309;DHT22;6217;48.150;17.142;2022-11-15T04:38:35;8.30;99.90
12309;DHT22;6217;48.150;17.142;2022-11-15T04:42:59;8.30;99.90
12309;DHT22;6217;48.150;17.142;2022-11-15T04:47:24;8.30;99.90
12309;DHT22;6217;48.150;17.142;2022-11-15T04:51:48;8.40;99.90
12309;DHT22;6217;48.150;17.142;2022-11-15T04:56:13;8.30;99.90
12309;DHT22;6217;48.150;17.142;2022-11-15T05:00:37;8.20;99.90
12309;DHT22;6217;48.150;17.142;2022-11-15T05:05:02;8.20;99.90
12309;DHT22;6217;48.150;17.142;2022-11-15T05:09:26;8.30;99.90
12309;DHT22;6217;48.150;17.142;2022-11-15T05:13:50;8.20;99.90
12309;DHT22;6217;48.150;17.142;2022-11-15T05:18:15;8.30;99.90
12309;DHT22;6217;48.150;17.142;2022-11-15T05:22:40;8.30;99.90
12309;DHT22;6217;48.150;17.142;2022-11-15T05:27:04;8.40;99.90
12309;DHT22;6217;48.150;17.142;2022-11-15T05:31:29;8.40;99.90
12309;DHT22;6217;48.150;17.142;2022-11-15T05:36:00;8.50;99.90
12309;DHT22;6217;48.150;17.142;2022-11-15T05:40:27;8.40;99.90
12309;DHT22;6217;48.150;17.142;2022-11-15T05:44:53;8.40;99.90
12309;DHT22;6217;48.150;17.142;2022-11-15T05:49:20;8.40;99.90
12309;DHT22;6217;48.150;17.142;2022-11-15T05:53:46;8.40;99.90
12309;DHT22;6217;48.150;17.142;2022-11-15T05:58:11;8.20;99.90
12309;DHT22;6217;48.150;17.142;2022-11-15T06:02:35;8.30;99.90
12309;DHT22;6217;48.150;17.142;2022-11-15T06:06:59;8.30;99.90
12309;DHT22;6217;48.150;17.142;2022-11-15T06:11:24;8.50;99.90
12309;DHT22;6217;48.150;17.142;2022-11-15T06:15:48;8.50;99.90
12309;DHT22;6217;48.150;17.142;2022-11-15T06:20:13;8.60;99.90
12309;DHT22;6217;48.150;17.142;2022-11-15T06:24:37;8.60;99.90
12309;DHT22;6217;48.150;17.142;2022-11-15T06:29:03;8.70;99.90
12309;DHT22;6217;48.150;17.142;2022-11-15T06:33:28;8.60;99.90
12309;DHT22;6217;48.150;17.142;2022-11-15T06:37:52;8.60;99.90
12309;DHT22;6217;48.150;17.142;2022-11-15T06:42:17;8.70;99.90
12309;DHT22;6217;48.150;17.142;2022-11-15T06:46:42;8.70;99.90
12309;DHT22;6217;48.150;17.142;2022-11-15T06:51:06;8.70;99.90
12309;DHT22;6217;48.150;17.142;2022-11-15T06:55:31;8.70;99.90
12309;DHT22;6217;48.150;17.142;2022-11-15T06:59:55;8.60;99.90
12309;DHT22;6217;48.150;17.142;2022-11-15T07:04:20;8.60;99.90
12309;DHT22;6217;48.150;17.142;2022-11-15T07:08:45;8.70;99.90
12309;DHT22;6217;48.150;17.142;2022-11-15T07:13:09;8.70;99.90
12309;DHT22;6217;48.150;17.142;2022-11-15T07:17:34;8.70;99.90
12309;DHT22;6217;48.150;17.142;2022-11-15T07:21:58;8.70;99.90
12309;DHT22;6217;48.150;17.142;2022-11-15T07:26:22;8.80;99.90
12309;DHT22;6217;48.150;17.142;2022-11-15T07:30:47;8.80;99.90
12309;DHT22;6217;48.150;17.142;2022-11-15T07:35:11;8.80;99.90
12309;DHT22;6217;48.150;17.142;2022-11-15T07:39:35;8.90;99.90
12309;DHT22;6217;48.150;17.142;2022-11-15T07:44:00;8.90;99.90
12309;DHT22;6217;48.150;17.142;2022-11-15T07:48:24;9.00;99.90
12309;DHT22;6217;48.150;17.142;2022-11-15T07:52:54;9.00;99.90
12309;DHT22;6217;48.150;17.142;2022-11-15T07:57:19;8.90;99.90
12309;DHT22;6217;48.150;17.142;2022-11-15T08:01:43;8.90;99.90
12309;DHT22;6217;48.150;17.142;2022-11-15T08:06:08;8.90;99.90
12309;DHT22;6217;48.150;17.142;2022-11-15T08:10:32;9.00;99.90
12309;DHT22;6217;48.150;17.142;2022-11-15T08:14:57;8.90;99.90
12309;DHT22;6217;48.150;17.142;2022-11-15T08:19:21;9.00;99.90
12309;DHT22;6217;48.150;17.142;2022-11-15T08:23:46;9.00;99.90
12309;DHT22;6217;48.150;17.142;2022-11-15T08:28:10;9.10;99.90
12309;DHT22;6217;48.150;17.142;2022-11-15T08:32:35;9.20;99.90
12309;DHT22;6217;48.150;17.142;2022-11-15T08:36:59;9.20;99.90
12309;DHT22;6217;48.150;17.142;2022-11-15T08:41:44;9.10;99.90
12309;DHT22;6217;48.150;17.142;2022-11-15T08:46:12;9.10;99.90
12309;DHT22;6217;48.150;17.142;2022-11-15T08:50:37;9.20;99.90
12309;DHT22;6217;48.150;17.142;2022-11-15T08:55:02;9.20;99.90
12309;DHT22;6217;48.150;17.142;2022-11-15T08:59:26;9.30;99.90
12309;DHT22;6217;48.150;17.142;2022-11-15T09:03:50;9.30;99.90
12309;DHT22;6217;48.150;17.142;2022-11-15T09:08:15;9.30;99.90
12309;DHT22;6217;48.150;17.142;2022-11-15T09:12:39;9.40;99.90
12309;DHT22;6217;48.150;17.142;2022-11-15T09:17:06;9.40;99.80
12309;DHT22;6217;48.150;17.142;2022-11-15T09:21:31;9.40;99.90
12309;DHT22;6217;48.150;17.142;2022-11-15T09:26:00;9.50;99.90
12309;DHT22;6217;48.150;17.142;2022-11-15T09:30:25;9.60;99.90
12309;DHT22;6217;48.150;17.142;2022-11-15T09:34:50;9.50;99.80
12309;DHT22;6217;48.150;17.142;2022-11-15T09:39:14;9.50;99.80
12309;DHT22;6217;48.150;17.142;2022-11-15T09:53:13;9.80;99.80
12309;DHT22;6217;48.150;17.142;2022-11-15T09:57:32;9.90;99.80
12309;DHT22;6217;48.150;17.142;2022-11-15T10:06:18;10.10;99.70
12309;DHT22;6217;48.150;17.142;2022-11-15T10:10:40;10.30;99.70
12309;DHT22;6217;48.150;17.142;2022-11-15T10:14:48;10.60;99.10
12309;DHT22;6217;48.150;17.142;2022-11-15T10:23:11;10.80;98.60
12309;DHT22;6217;48.150;17.142;2022-11-15T10:27:19;10.90;98.70
12309;DHT22;6217;48.150;17.142;2022-11-15T10:31:28;11.10;98.40
12309;DHT22;6217;48.150;17.142;2022-11-15T10:35:34;11.10;98.40
12309;DHT22;6217;48.150;17.142;2022-11-15T10:39:40;11.10;98.50
12309;DHT22;6217;48.150;17.142;2022-11-15T10:52:19;10.70;98.70
12309;DHT22;6217;48.150;17.142;2022-11-15T10:56:26;10.70;98.80
12309;DHT22;6217;48.150;17.142;2022-11-15T11:00:35;10.80;98.80
12309;DHT22;6217;48.150;17.142;2022-11-15T11:04:49;10.80;98.60
12309;DHT22;6217;48.150;17.142;2022-11-15T11:09:00;10.80;98.60
12309;DHT22;6217;48.150;17.142;2022-11-15T11:13:14;10.70;98.70
12309;DHT22;6217;48.150;17.142;2022-11-15T11:40:35;10.40;99.20
12309;DHT22;6217;48.150;17.142;2022-11-15T11:49:28;10.50;99.20
12309;DHT22;6217;48.150;17.142;2022-11-15T11:53:43;10.50;99.30
12309;DHT22;6217;48.150;17.142;2022-11-15T12:02:41;10.70;99.40
12309;DHT22;6217;48.150;17.142;2022-11-15T12:06:58;10.70;99.50
12309;DHT22;6217;48.150;17.142;2022-11-15T12:11:17;10.70;99.10
12309;DHT22;6217;48.150;17.142;2022-11-15T12:19:58;10.50;99.50
12309;DHT22;6217;48.150;17.142;2022-11-15T12:24:20;10.50;99.60
12309;DHT22;6217;48.150;17.142;2022-11-15T12:28:47;10.50;99.70
12309;DHT22;6217;48.150;17.142;2022-11-15T12:32:57;10.60;99.80
12309;DHT22;6217;48.150;17.142;2022-11-15T12:37:34;10.60;99.70
12309;DHT22;6217;48.150;17.142;2022-11-15T12:46:05;10.50;99.80
12309;DHT22;6217;48.150;17.142;2022-11-15T12:50:12;10.50;99.70
12309;DHT22;6217;48.150;17.142;2022-11-15T13:02:48;10.60;99.90
12309;DHT22;6217;48.150;17.142;2022-11-15T13:07:02;10.60;99.90
12309;DHT22;6217;48.150;17.142;2022-11-15T13:11:44;10.70;99.90
12309;DHT22;6217;48.150;17.142;2022-11-15T13:15:59;10.70;99.80
12309;DHT22;6217;48.150;17.142;2022-11-15T13:24:16;10.60;99.80
12309;DHT22;6217;48.150;17.142;2022-11-15T13:28:36;10.50;99.90
12309;DHT22;6217;48.150;17.142;2022-11-15T13:32:42;10.50;99.90
12309;DHT22;6217;48.150;17.142;2022-11-15T13:36:48;10.60;99.90
12309;DHT22;6217;48.150;17.142;2022-11-15T13:40:55;10.60;99.90
12309;DHT22;6217;48.150;17.142;2022-11-15T13:45:04;10.50;99.90
12309;DHT22;6217;48.150;17.142;2022-11-15T13:49:10;10.60;99.90
12309;DHT22;6217;48.150;17.142;2022-11-15T13:53:18;10.50;99.90
12309;DHT22;6217;48.150;17.142;2022-11-15T13:57:34;10.50;99.90
12309;DHT22;6217;48.150;17.142;2022-11-15T14:01:44;10.50;99.90
12309;DHT22;6217;48.150;17.142;2022-11-15T14:06:03;10.50;99.90
12309;DHT22;6217;48.150;17.142;2022-11-15T14:10:28;10.50;99.90
12309;DHT22;6217;48.150;17.142;2022-11-15T14:14:45;10.60;99.90
12309;DHT22;6217;48.150;17.142;2022-11-15T14:18:52;10.60;99.90
12309;DHT22;6217;48.150;17.142;2022-11-15T14:23:01;10.60;99.90
12309;DHT22;6217;48.150;17.142;2022-11-15T14:27:26;10.60;99.90
12309;DHT22;6217;48.150;17.142;2022-11-15T14:31:32;10.60;99.90
12309;DHT22;6217;48.150;17.142;2022-11-15T14:35:38;10.60;99.90
12309;DHT22;6217;48.150;17.142;2022-11-15T14:39:44;10.60;99.90
12309;DHT22;6217;48.150;17.142;2022-11-15T14:43:51;10.60;99.90
12309;DHT22;6217;48.150;17.142;2022-11-15T14:47:56;10.50;99.90
12309;DHT22;6217;48.150;17.142;2022-11-15T14:52:38;10.50;99.90
12309;DHT22;6217;48.150;17.142;2022-11-15T14:56:41;10.60;99.90
12309;DHT22;6217;48.150;17.142;2022-11-15T15:00:48;10.60;99.90
12309;DHT22;6217;48.150;17.142;2022-11-15T15:04:54;10.60;99.90
12309;DHT22;6217;48.150;17.142;2022-11-15T15:08:59;10.70;99.90
12309;DHT22;6217;48.150;17.142;2022-11-15T15:13:08;10.80;99.90
12309;DHT22;6217;48.150;17.142;2022-11-15T15:17:16;10.70;99.90
12309;DHT22;6217;48.150;17.142;2022-11-15T15:21:27;10.80;99.90
12309;DHT22;6217;48.150;17.142;2022-11-15T15:25:34;10.70;99.90
12309;DHT22;6217;48.150;17.142;2022-11-15T15:29:40;10.70;99.90
12309;DHT22;6217;48.150;17.142;2022-11-15T15:33:46;10.80;99.90
12309;DHT22;6217;48.150;17.142;2022-11-15T15:37:51;10.80;99.90
12309;DHT22;6217;48.150;17.142;2022-11-15T15:41:57;10.80;99.90
12309;DHT22;6217;48.150;17.142;2022-11-15T15:46:03;10.80;99.90
12309;DHT22;6217;48.150;17.142;2022-11-15T15:50:31;10.80;99.90
12309;DHT22;6217;48.150;17.142;2022-11-15T15:54:37;10.80;99.90
12309;DHT22;6217;48.150;17.142;2022-11-15T15:58:43;10.90;99.90
12309;DHT22;6217;48.150;17.142;2022-11-15T16:02:49;10.90;99.90
12309;DHT22;6217;48.150;17.142;2022-11-15T16:06:59;10.90;99.90
12309;DHT22;6217;48.150;17.142;2022-11-15T16:11:05;10.90;99.90
12309;DHT22;6217;48.150;17.142;2022-11-15T16:15:11;10.90;99.90
12309;DHT22;6217;48.150;17.142;2022-11-15T16:19:17;11.00;99.90
12309;DHT22;6217;48.150;17.142;2022-11-15T16:23:23;11.10;99.90
12309;DHT22;6217;48.150;17.142;2022-11-15T16:27:29;11.00;99.90
12309;DHT22;6217;48.150;17.142;2022-11-15T16:31:35;11.10;99.90
12309;DHT22;6217;48.150;17.142;2022-11-15T16:35:41;11.10;99.90
12309;DHT22;6217;48.150;17.142;2022-11-15T16:39:47;11.10;99.90
12309;DHT22;6217;48.150;17.142;2022-11-15T16:43:53;11.10;99.90
12309;DHT22;6217;48.150;17.142;2022-11-15T16:47:58;11.20;99.90
12309;DHT22;6217;48.150;17.142;2022-11-15T16:52:04;11.00;99.90
12309;DHT22;6217;48.150;17.142;2022-11-15T16:56:23;10.90;99.90
12309;DHT22;6217;48.150;17.142;2022-11-15T17:00:29;11.00;99.90
12309;DHT22;6217;48.150;17.142;2022-11-15T17:04:35;11.10;99.90
12309;DHT22;6217;48.150;17.142;2022-11-15T17:08:41;11.10;99.90
12309;DHT22;6217;48.150;17.142;2022-11-15T17:12:47;11.10;99.90
12309;DHT22;6217;48.150;17.142;2022-11-15T17:16:53;11.00;99.90
12309;DHT22;6217;48.150;17.142;2022-11-15T17:21:04;11.10;99.90
12309;DHT22;6217;48.150;17.142;2022-11-15T17:25:09;11.00;99.90
12309;DHT22;6217;48.150;17.142;2022-11-15T17:29:15;11.10;99.90
12309;DHT22;6217;48.150;17.142;2022-11-15T17:33:21;11.10;99.90
12309;DHT22;6217;48.150;17.142;2022-11-15T17:37:27;11.10;99.90
12309;DHT22;6217;48.150;17.142;2022-11-15T17:41:33;11.20;99.90
12309;DHT22;6217;48.150;17.142;2022-11-15T17:45:41;11.20;99.90
12309;DHT22;6217;48.150;17.142;2022-11-15T17:49:47;11.20;99.90
12309;DHT22;6217;48.150;17.142;2022-11-15T17:53:54;11.20;99.90
12309;DHT22;6217;48.150;17.142;2022-11-15T17:58:00;11.20;99.90
12309;DHT22;6217;48.150;17.142;2022-11-15T18:02:06;11.30;99.90
12309;DHT22;6217;48.150;17.142;2022-11-15T18:06:12;11.20;99.90
12309;DHT22;6217;48.150;17.142;2022-11-15T18:10:18;11.30;99.90
12309;DHT22;6217;48.150;17.142;2022-11-15T18:14:24;11.20;99.90
12309;DHT22;6217;48.150;17.142;2022-11-15T18:18:32;11.10;99.90
12309;DHT22;6217;48.150;17.142;2022-11-15T18:22:38;11.10;99.90
12309;DHT22;6217;48.150;17.142;2022-11-15T18:26:43;11.10;99.90
12309;DHT22;6217;48.150;17.142;2022-11-15T18:30:49;11.10;99.90
12309;DHT22;6217;48.150;17.142;2022-11-15T18:34:55;11.10;99.90
12309;DHT22;6217;48.150;17.142;2022-11-15T18:39:02;11.10;99.90
12309;DHT22;6217;48.150;17.142;2022-11-15T18:43:08;11.00;99.90
12309;DHT22;6217;48.150;17.142;2022-11-15T18:47:14;10.90;99.90
12309;DHT22;6217;48.150;17.142;2022-11-15T18:51:22;10.90;99.90
12309;DHT22;6217;48.150;17.142;2022-11-15T18:55:28;10.90;99.90
12309;DHT22;6217;48.150;17.142;2022-11-15T18:59:33;11.00;99.90
12309;DHT22;6217;48.150;17.142;2022-11-15T19:03:42;11.10;99.90
12309;DHT22;6217;48.150;17.142;2022-11-15T19:07:47;11.10;99.90
12309;DHT22;6217;48.150;17.142;2022-11-15T19:11:53;11.10;99.90
12309;DHT22;6217;48.150;17.142;2022-11-15T19:16:01;11.10;99.90
12309;DHT22;6217;48.150;17.142;2022-11-15T19:20:07;11.10;99.90
12309;DHT22;6217;48.150;17.142;2022-11-15T19:24:13;11.10;99.90
12309;DHT22;6217;48.150;17.142;2022-11-15T19:28:19;11.10;99.90
12309;DHT22;6217;48.150;17.142;2022-11-15T19:32:26;11.00;99.90
12309;DHT22;6217;48.150;17.142;2022-11-15T19:36:36;11.10;99.90
12309;DHT22;6217;48.150;17.142;2022-11-15T19:40:41;11.00;99.90
12309;DHT22;6217;48.150;17.142;2022-11-15T19:44:47;11.10;99.90
12309;DHT22;6217;48.150;17.142;2022-11-15T19:48:53;11.10;99.90
12309;DHT22;6217;48.150;17.142;2022-11-15T19:52:59;11.00;99.90
12309;DHT22;6217;48.150;17.142;2022-11-15T19:57:04;11.00;99.90
12309;DHT22;6217;48.150;17.142;2022-11-15T20:01:21;10.90;99.90
12309;DHT22;6217;48.150;17.142;2022-11-15T20:05:27;10.90;99.90
12309;DHT22;6217;48.150;17.142;2022-11-15T20:09:33;10.90;99.90
12309;DHT22;6217;48.150;17.142;2022-11-15T20:13:40;10.90;99.90
12309;DHT22;6217;48.150;17.142;2022-11-15T20:17:46;10.80;99.90
12309;DHT22;6217;48.150;17.142;2022-11-15T20:21:51;10.80;99.90
12309;DHT22;6217;48.150;17.142;2022-11-15T20:25:57;10.80;99.90
12309;DHT22;6217;48.150;17.142;2022-11-15T20:30:03;10.90;99.90
12309;DHT22;6217;48.150;17.142;2022-11-15T20:34:09;10.90;99.90
12309;DHT22;6217;48.150;17.142;2022-11-15T20:38:15;10.90;99.90
12309;DHT22;6217;48.150;17.142;2022-11-15T20:42:21;10.90;99.90
12309;DHT22;6217;48.150;17.142;2022-11-15T20:46:27;10.90;99.90
12309;DHT22;6217;48.150;17.142;2022-11-15T20:50:33;10.90;99.90
12309;DHT22;6217;48.150;17.142;2022-11-15T20:54:39;10.80;99.90
12309;DHT22;6217;48.150;17.142;2022-11-15T20:58:44;10.80;99.90
12309;DHT22;6217;48.150;17.142;2022-11-15T21:02:51;10.80;99.90
12309;DHT22;6217;48.150;17.142;2022-11-15T21:06:57;10.90;99.90
12309;DHT22;6217;48.150;17.142;2022-11-15T21:11:03;10.90;99.90
12309;DHT22;6217;48.150;17.142;2022-11-15T21:15:27;10.90;99.90
12309;DHT22;6217;48.150;17.142;2022-11-15T21:19:33;10.80;99.90
12309;DHT22;6217;48.150;17.142;2022-11-15T21:23:39;10.80;99.90
12309;DHT22;6217;48.150;17.142;2022-11-15T21:27:50;10.90;99.90
12309;DHT22;6217;48.150;17.142;2022-11-15T21:31:57;10.90;99.90
12309;DHT22;6217;48.150;17.142;2022-11-15T21:36:03;10.90;99.90
12309;DHT22;6217;48.150;17.142;2022-11-15T21:40:09;10.90;99.90
12309;DHT22;6217;48.150;17.142;2022-11-15T21:44:15;10.90;99.90
12309;DHT22;6217;48.150;17.142;2022-11-15T21:48:21;10.90;99.90
12309;DHT22;6217;48.150;17.142;2022-11-15T21:52:27;10.80;99.90
12309;DHT22;6217;48.150;17.142;2022-11-15T21:56:33;10.80;99.90
12309;DHT22;6217;48.150;17.142;2022-11-15T22:00:38;10.80;99.90
12309;DHT22;6217;48.150;17.142;2022-11-15T22:05:03;10.70;99.90
12309;DHT22;6217;48.150;17.142;2022-11-15T22:09:09;10.70;99.90
12309;DHT22;6217;48.150;17.142;2022-11-15T22:13:15;10.60;99.90
12309;DHT22;6217;48.150;17.142;2022-11-15T22:17:21;10.60;99.90
12309;DHT22;6217;48.150;17.142;2022-11-15T22:21:29;10.50;99.90
12309;DHT22;6217;48.150;17.142;2022-11-15T22:25:34;10.60;99.90
12309;DHT22;6217;48.150;17.142;2022-11-15T22:29:40;10.50;99.90
12309;DHT22;6217;48.150;17.142;2022-11-15T22:33:46;10.40;99.90
12309;DHT22;6217;48.150;17.142;2022-11-15T22:37:52;10.40;99.90
12309;DHT22;6217;48.150;17.142;2022-11-15T22:41:57;10.20;99.90
12309;DHT22;6217;48.150;17.142;2022-11-15T22:46:03;10.20;99.90
12309;DHT22;6217;48.150;17.142;2022-11-15T22:50:09;10.20;99.90
12309;DHT22;6217;48.150;17.142;2022-11-15T22:54:15;10.20;99.90
12309;DHT22;6217;48.150;17.142;2022-11-15T22:58:22;10.10;99.90
12309;DHT22;6217;48.150;17.142;2022-11-15T23:02:29;10.10;99.90
12309;DHT22;6217;48.150;17.142;2022-11-15T23:06:34;10.10;99.90
12309;DHT22;6217;48.150;17.142;2022-11-15T23:10:41;10.00;99.90
12309;DHT22;6217;48.150;17.142;2022-11-15T23:15:06;9.90;99.90
12309;DHT22;6217;48.150;17.142;2022-11-15T23:19:12;9.90;99.90
12309;DHT22;6217;48.150;17.142;2022-11-15T23:23:18;10.00;99.90
12309;DHT22;6217;48.150;17.142;2022-11-15T23:27:24;10.10;99.90
12309;DHT22;6217;48.150;17.142;2022-11-15T23:31:30;10.10;99.90
12309;DHT22;6217;48.150;17.142;2022-11-15T23:35:54;10.10;99.90
12309;DHT22;6217;48.150;17.142;2022-11-15T23:40:00;10.10;99.90
12309;DHT22;6217;48.150;17.142;2022-11-15T23:44:06;10.20;99.90
12309;DHT22;6217;48.150;17.142;2022-11-15T23:48:12;10.10;99.90
12309;DHT22;6217;48.150;17.142;2022-11-15T23:52:18;10.00;99.90
12309;DHT22;6217;48.150;17.142;2022-11-15T23:56:24;10.00;99.90
